createdAt,value
2018-09-13T00:01:13.465Z,2.53
2018-09-13T00:03:41.568Z,2.60
2018-09-13T00:06:09.697Z,2.97
2018-09-13T00:08:37.828Z,2.80
2018-09-13T00:11:06.221Z,3.00
2018-09-13T00:13:34.325Z,3.17
2018-09-13T00:16:02.440Z,2.73
2018-09-13T00:18:30.565Z,2.53
2018-09-13T00:20:58.765Z,3.53
2018-09-13T00:23:26.872Z,3.00
2018-09-13T00:25:54.991Z,2.60
2018-09-13T00:28:23.107Z,3.13
2018-09-13T00:30:51.210Z,3.60
2018-09-13T00:33:19.324Z,3.13
2018-09-13T00:35:47.416Z,2.80
2018-09-13T00:38:15.652Z,3.20
2018-09-13T00:40:43.741Z,2.97
2018-09-13T00:43:11.848Z,4.00
2018-09-13T00:45:39.971Z,3.17
2018-09-13T00:48:08.263Z,3.33
2018-09-13T00:50:36.368Z,3.80
2018-09-13T00:53:04.513Z,3.30
2018-09-13T00:55:32.650Z,4.27
2018-09-13T00:58:00.757Z,3.63
2018-09-13T01:00:28.865Z,3.23
2018-09-13T01:02:56.975Z,3.40
2018-09-13T01:05:25.084Z,3.27
2018-09-13T01:07:53.191Z,3.13
2018-09-13T01:10:21.304Z,3.40
2018-09-13T01:12:49.403Z,3.40
2018-09-13T01:15:17.564Z,3.40
2018-09-13T01:17:45.669Z,4.43
2018-09-13T01:20:13.775Z,3.50
2018-09-13T01:22:41.887Z,3.07
2018-09-13T01:25:09.992Z,3.00
2018-09-13T01:27:38.108Z,2.70
2018-09-13T01:30:06.352Z,2.83
2018-09-13T01:32:34.491Z,2.83
2018-09-13T01:35:02.588Z,3.40
2018-09-13T01:37:30.769Z,2.80
2018-09-13T01:39:58.884Z,3.30
2018-09-13T01:42:26.980Z,3.40
2018-09-13T01:44:55.071Z,3.10
2018-09-13T01:47:23.172Z,3.37
2018-09-13T01:49:51.269Z,2.23
2018-09-13T01:52:19.364Z,2.10
2018-09-13T01:54:47.467Z,2.00
2018-09-13T01:57:15.725Z,2.13
2018-09-13T01:59:43.811Z,2.17
2018-09-13T02:02:11.899Z,2.30
2018-09-13T02:04:39.996Z,2.10
2018-09-13T02:07:08.126Z,2.10
2018-09-13T02:09:36.212Z,2.27
2018-09-13T02:12:04.311Z,2.40
2018-09-13T02:14:32.420Z,2.67
2018-09-13T02:17:00.500Z,2.27
2018-09-13T02:19:28.617Z,2.90
2018-09-13T02:21:56.714Z,2.60
2018-09-13T02:24:24.809Z,2.10
2018-09-13T02:26:52.945Z,3.00
2018-09-13T02:29:21.053Z,2.90
2018-09-13T02:31:49.135Z,2.80
2018-09-13T02:34:17.240Z,2.80
2018-09-13T02:36:45.330Z,2.97
2018-09-13T02:39:13.443Z,2.87
2018-09-13T02:41:41.541Z,2.80
2018-09-13T02:44:09.985Z,2.60
2018-09-13T02:46:38.667Z,2.60
2018-09-13T02:49:06.778Z,2.30
2018-09-13T02:51:34.835Z,2.60
2018-09-13T02:54:03.009Z,2.43
2018-09-13T02:56:31.360Z,1.53
2018-09-13T02:58:59.513Z,1.50
2018-09-13T03:01:27.657Z,1.60
2018-09-13T03:03:55.752Z,2.03
2018-09-13T03:06:23.856Z,2.17
2018-09-13T03:08:51.941Z,1.97
2018-09-13T03:11:20.044Z,1.80
2018-09-13T03:13:48.149Z,1.73
2018-09-13T03:16:16.260Z,1.60
2018-09-13T03:18:44.420Z,1.47
2018-09-13T03:21:12.626Z,1.40
2018-09-13T03:23:40.737Z,1.10
2018-09-13T03:26:08.836Z,1.10
2018-09-13T03:28:37.028Z,1.60
2018-09-13T03:31:05.132Z,1.70
2018-09-13T03:33:33.255Z,2.17
2018-09-13T03:36:01.355Z,1.47
2018-09-13T03:38:29.496Z,1.10
2018-09-13T03:40:57.911Z,2.10
2018-09-13T03:43:26.016Z,2.00
2018-09-13T03:45:54.126Z,2.20
2018-09-13T03:48:22.241Z,2.30
2018-09-13T03:50:50.364Z,2.00
2018-09-13T03:53:18.475Z,2.73
2018-09-13T03:55:46.756Z,2.23
2018-09-13T03:58:14.860Z,2.93
2018-09-13T04:00:42.960Z,2.37
2018-09-13T04:03:11.117Z,2.67
2018-09-13T04:05:39.187Z,2.87
2018-09-13T04:08:07.291Z,3.00
2018-09-13T04:10:35.404Z,2.90
2018-09-13T04:13:03.495Z,2.80
2018-09-13T04:15:31.693Z,2.43
2018-09-13T04:17:59.769Z,2.27
2018-09-13T04:20:27.962Z,2.40
2018-09-13T04:22:56.058Z,2.73
2018-09-13T04:25:24.151Z,2.27
2018-09-13T04:27:52.228Z,2.20
2018-09-13T04:30:20.333Z,2.60
2018-09-13T04:32:48.506Z,2.67
2018-09-13T04:35:16.709Z,2.60
2018-09-13T04:37:44.845Z,1.97
2018-09-13T04:40:12.931Z,2.57
2018-09-13T04:42:41.024Z,2.90
2018-09-13T04:45:09.116Z,1.87
2018-09-13T04:47:37.207Z,2.60
2018-09-13T04:50:06.244Z,2.60
2018-09-13T04:52:34.360Z,2.40
2018-09-13T04:55:02.476Z,2.60
2018-09-13T04:57:30.591Z,2.30
2018-09-13T04:59:58.690Z,3.00
2018-09-13T05:02:26.773Z,2.73
2018-09-13T05:04:54.871Z,2.13
2018-09-13T05:07:22.951Z,2.30
2018-09-13T05:09:51.096Z,2.37
2018-09-13T05:12:19.220Z,2.30
2018-09-13T05:14:48.332Z,1.77
2018-09-13T05:17:16.504Z,1.97
2018-09-13T05:19:45.616Z,2.20
2018-09-13T05:22:13.735Z,2.20
2018-09-13T05:24:41.832Z,2.57
2018-09-13T05:27:09.953Z,2.47
2018-09-13T05:29:38.074Z,2.00
2018-09-13T05:32:06.207Z,1.80
2018-09-13T05:34:34.304Z,2.00
2018-09-13T05:37:02.420Z,1.87
2018-09-13T05:39:30.545Z,1.40
2018-09-13T05:41:58.660Z,1.83
2018-09-13T05:44:26.797Z,1.80
2018-09-13T05:46:54.896Z,1.70
2018-09-13T05:49:23.011Z,1.73
2018-09-13T05:51:51.185Z,1.57
2018-09-13T05:54:19.289Z,1.80
2018-09-13T05:56:47.392Z,1.53
2018-09-13T05:59:15.532Z,1.50
2018-09-13T06:01:43.647Z,1.60
2018-09-13T06:04:11.761Z,1.60
2018-09-13T06:06:39.876Z,1.80
2018-09-13T06:09:08.512Z,1.97
2018-09-13T06:11:36.628Z,2.13
2018-09-13T06:14:04.975Z,1.73
2018-09-13T06:16:33.096Z,1.20
2018-09-13T06:19:01.219Z,1.93
2018-09-13T06:21:29.810Z,1.87
2018-09-13T06:23:57.914Z,1.77
2018-09-13T06:26:26.036Z,1.20
2018-09-13T06:28:54.535Z,1.70
2018-09-13T06:31:22.644Z,1.57
2018-09-13T06:33:50.791Z,1.53
2018-09-13T06:36:18.943Z,1.87
2018-09-13T06:38:47.039Z,2.20
2018-09-13T06:41:15.233Z,1.50
2018-09-13T06:43:43.328Z,1.40
2018-09-13T06:46:11.479Z,1.20
2018-09-13T06:48:39.636Z,1.70
2018-09-13T06:51:07.819Z,1.30
2018-09-13T06:53:35.948Z,1.80
2018-09-13T06:56:04.048Z,1.80
2018-09-13T06:58:32.192Z,2.10
2018-09-13T07:01:00.308Z,1.70
2018-09-13T07:03:28.431Z,2.03
2018-09-13T07:05:57.346Z,1.67
2018-09-13T07:08:25.448Z,1.73
2018-09-13T07:10:54.424Z,1.57
2018-09-13T07:13:22.539Z,1.70
2018-09-13T07:15:50.639Z,1.30
2018-09-13T07:18:18.753Z,2.17
2018-09-13T07:20:46.856Z,1.53
2018-09-13T07:23:15.051Z,2.40
2018-09-13T07:25:43.152Z,2.27
2018-09-13T07:28:11.264Z,1.90
2018-09-13T07:30:39.506Z,1.83
2018-09-13T07:33:07.795Z,1.90
2018-09-13T07:35:35.911Z,2.17
2018-09-13T07:38:04.026Z,2.30
2018-09-13T07:40:32.133Z,1.60
2018-09-13T07:43:00.303Z,2.13
2018-09-13T07:45:28.403Z,2.20
2018-09-13T07:47:56.857Z,2.47
2018-09-13T07:50:24.972Z,2.23
2018-09-13T07:52:53.314Z,2.50
2018-09-13T07:55:21.419Z,2.30
2018-09-13T07:57:49.531Z,1.90
2018-09-13T08:00:17.659Z,2.00
2018-09-13T08:02:45.827Z,2.57
2018-09-13T08:05:13.941Z,2.70
2018-09-13T08:07:42.052Z,2.77
2018-09-13T08:10:10.152Z,2.80
2018-09-13T08:12:38.254Z,2.33
2018-09-13T08:15:06.341Z,2.40
2018-09-13T08:17:34.468Z,2.40
2018-09-13T08:20:02.810Z,3.80
2018-09-13T08:22:30.949Z,2.30
2018-09-13T08:24:59.283Z,2.03
2018-09-13T08:27:27.380Z,2.50
2018-09-13T08:29:55.487Z,2.40
2018-09-13T08:32:23.575Z,1.70
2018-09-13T08:34:51.762Z,1.97
2018-09-13T08:37:19.771Z,1.80
2018-09-13T08:39:47.960Z,1.40
2018-09-13T08:42:16.032Z,1.33
2018-09-13T08:44:44.140Z,1.47
2018-09-13T08:47:12.235Z,1.40
2018-09-13T08:49:40.335Z,1.90
2018-09-13T08:52:08.488Z,1.60
2018-09-13T08:54:36.539Z,1.27
2018-09-13T08:57:04.667Z,1.50
2018-09-13T08:59:32.768Z,1.37
2018-09-13T09:02:00.859Z,1.90
2018-09-13T09:04:28.968Z,2.40
2018-09-13T09:06:57.069Z,2.00
2018-09-13T09:09:25.203Z,1.60
2018-09-13T09:11:53.365Z,2.30
2018-09-13T09:14:21.431Z,2.67
2018-09-13T09:16:49.546Z,2.87
2018-09-13T09:19:17.756Z,3.37
2018-09-13T09:21:45.864Z,3.37
2018-09-13T09:24:14.016Z,3.37
2018-09-13T09:26:42.091Z,3.33
2018-09-13T09:29:10.226Z,3.57
2018-09-13T09:31:38.319Z,2.70
2018-09-13T09:34:06.443Z,3.50
2018-09-13T09:36:34.555Z,3.60
2018-09-13T09:39:02.677Z,3.87
2018-09-13T09:41:30.783Z,3.77
2018-09-13T09:43:58.904Z,3.40
2018-09-13T09:46:27.016Z,2.50
2018-09-13T09:48:55.119Z,3.93
2018-09-13T09:51:23.233Z,4.00
2018-09-13T09:53:51.348Z,3.30
2018-09-13T09:56:19.466Z,4.20
2018-09-13T09:58:47.572Z,3.07
2018-09-13T10:01:21.256Z,3.57
2018-09-13T10:03:49.367Z,3.30
2018-09-13T10:06:17.468Z,3.23
2018-09-13T10:08:45.579Z,3.60
2018-09-13T10:11:13.762Z,3.60
2018-09-13T10:13:41.883Z,4.20
2018-09-13T10:16:15.451Z,3.50
2018-09-13T10:18:45.068Z,3.03
2018-09-13T10:21:18.583Z,3.03
2018-09-13T10:23:52.108Z,3.40
2018-09-13T10:26:25.595Z,2.73
2018-09-13T10:28:59.199Z,2.60
2018-09-13T10:31:32.650Z,3.17
2018-09-13T10:34:06.300Z,2.70
2018-09-13T10:36:39.684Z,2.70
2018-09-13T10:39:14.037Z,2.50
2018-09-13T10:41:47.992Z,2.40
2018-09-13T10:44:21.644Z,3.90
2018-09-13T10:46:55.226Z,2.17
2018-09-13T10:49:28.803Z,2.23
2018-09-13T10:52:03.039Z,2.20
2018-09-13T10:54:39.392Z,2.17
2018-09-13T10:57:13.248Z,2.00
2018-09-13T10:59:41.296Z,1.77
2018-09-13T11:02:10.229Z,2.97
2018-09-13T11:04:38.648Z,2.60
2018-09-13T11:07:07.641Z,2.13
2018-09-13T11:09:35.760Z,2.90
2018-09-13T11:12:04.085Z,2.30
2018-09-13T11:14:42.535Z,2.73
2018-09-13T11:17:10.628Z,2.70
2018-09-13T11:19:38.785Z,2.30
2018-09-13T11:22:07.129Z,3.13
2018-09-13T11:24:35.303Z,3.00
2018-09-13T11:27:03.367Z,2.50
2018-09-13T11:29:31.465Z,2.20
2018-09-13T11:31:59.597Z,2.60
2018-09-13T11:34:27.695Z,2.50
2018-09-13T11:36:55.809Z,2.80
2018-09-13T11:39:23.908Z,2.40
2018-09-13T11:41:52.041Z,2.50
2018-09-13T11:44:20.132Z,3.27
2018-09-13T11:46:48.245Z,2.70
2018-09-13T11:49:16.359Z,2.77
2018-09-13T11:51:44.452Z,3.03
2018-09-13T11:54:12.531Z,3.27
2018-09-13T11:56:40.631Z,2.80
2018-09-13T11:59:08.719Z,2.83
2018-09-13T12:01:36.812Z,2.87
2018-09-13T12:04:04.912Z,2.90
2018-09-13T12:06:33.035Z,2.70
2018-09-13T12:09:01.124Z,2.63
2018-09-13T12:11:29.345Z,2.90
2018-09-13T12:13:57.460Z,2.67
2018-09-13T12:16:25.568Z,2.70
2018-09-13T12:18:53.661Z,2.73
2018-09-13T12:21:21.811Z,2.33
2018-09-13T12:23:49.925Z,2.70
2018-09-13T12:26:18.046Z,2.53
2018-09-13T12:28:46.148Z,2.83
2018-09-13T12:31:14.253Z,2.03
2018-09-13T12:33:42.360Z,2.40
2018-09-13T12:36:10.454Z,3.00
2018-09-13T12:38:38.552Z,3.03
2018-09-13T12:41:06.680Z,2.40
2018-09-13T12:43:34.824Z,2.70
2018-09-13T12:46:03.042Z,3.57
2018-09-13T12:48:31.185Z,3.20
2018-09-13T12:50:59.276Z,3.30
2018-09-13T12:53:27.384Z,3.70
2018-09-13T12:55:56.252Z,3.13
2018-09-13T12:58:25.560Z,3.07
2018-09-13T13:00:53.655Z,4.47
2018-09-13T13:03:21.813Z,4.13
2018-09-13T13:05:50.392Z,4.17
2018-09-13T13:08:18.776Z,4.50
2018-09-13T13:10:46.947Z,3.60
2018-09-13T13:13:15.271Z,3.97
2018-09-13T13:15:43.356Z,3.83
2018-09-13T13:18:11.464Z,4.40
2018-09-13T13:20:39.541Z,4.03
2018-09-13T13:23:07.632Z,3.93
2018-09-13T13:25:35.723Z,3.73
2018-09-13T13:28:03.819Z,4.37
2018-09-13T13:30:31.909Z,4.40
2018-09-13T13:33:00.013Z,3.40
2018-09-13T13:35:28.123Z,3.93
2018-09-13T13:37:56.231Z,4.20
2018-09-13T13:40:24.353Z,3.70
2018-09-13T13:42:52.436Z,4.70
2018-09-13T13:45:20.577Z,4.80
2018-09-13T13:47:48.664Z,4.70
2018-09-13T13:50:16.769Z,3.90
2018-09-13T13:52:44.956Z,3.80
2018-09-13T13:55:13.073Z,4.57
2018-09-13T13:57:41.182Z,3.90
2018-09-13T14:00:10.252Z,3.57
2018-09-13T14:02:38.347Z,3.60
2018-09-13T14:05:06.468Z,3.90
2018-09-13T14:07:34.559Z,4.17
2018-09-13T14:10:02.750Z,4.27
2018-09-13T14:12:30.783Z,4.43
2018-09-13T14:14:58.885Z,4.27
2018-09-13T14:17:26.972Z,3.90
2018-09-13T14:19:55.084Z,4.80
2018-09-13T14:22:23.184Z,4.77
2018-09-13T14:24:51.287Z,4.63
2018-09-13T14:27:19.371Z,4.50
2018-09-13T14:29:47.493Z,5.73
2018-09-13T14:32:15.604Z,5.17
2018-09-13T14:34:43.725Z,4.80
2018-09-13T14:37:11.819Z,4.97
2018-09-13T14:39:39.919Z,5.13
2018-09-13T14:42:08.011Z,4.93
2018-09-13T14:44:36.120Z,5.60
2018-09-13T14:47:04.216Z,4.23
2018-09-13T14:49:32.331Z,5.10
2018-09-13T14:52:00.479Z,4.70
2018-09-13T14:54:28.608Z,4.87
2018-09-13T14:56:56.707Z,5.33
2018-09-13T14:59:24.839Z,5.10
2018-09-13T15:01:52.976Z,4.77
2018-09-13T15:04:21.041Z,5.00
2018-09-13T15:06:49.473Z,4.77
2018-09-13T15:09:17.528Z,5.30
2018-09-13T15:11:45.624Z,4.90
2018-09-13T15:14:13.754Z,5.30
2018-09-13T15:16:41.865Z,6.00
2018-09-13T15:19:09.952Z,5.00
2018-09-13T15:21:38.087Z,5.83
2018-09-13T15:24:06.398Z,5.30
2018-09-13T15:26:34.488Z,5.50
2018-09-13T15:29:02.589Z,5.23
2018-09-13T15:31:30.720Z,4.80
2018-09-13T15:33:58.847Z,5.50
2018-09-13T15:36:26.960Z,6.03
2018-09-13T15:38:55.056Z,4.83
2018-09-13T15:41:23.219Z,6.00
2018-09-13T15:43:51.653Z,5.27
2018-09-13T15:46:19.773Z,4.30
2018-09-13T15:48:47.877Z,5.40
2018-09-13T15:51:16.033Z,4.33
2018-09-13T15:53:44.148Z,4.60
2018-09-13T15:56:12.267Z,5.00
2018-09-13T15:58:40.443Z,5.80
2018-09-13T16:01:08.561Z,4.60
2018-09-13T16:03:36.676Z,6.13
2018-09-13T16:06:04.784Z,5.07
2018-09-13T16:08:32.885Z,5.27
2018-09-13T16:11:01.007Z,4.60
2018-09-13T16:13:29.150Z,5.30
2018-09-13T16:15:57.251Z,4.27
2018-09-13T16:18:25.364Z,5.40
2018-09-13T16:20:53.598Z,3.90
2018-09-13T16:23:21.660Z,4.63
2018-09-13T16:25:49.779Z,5.13
2018-09-13T16:28:17.921Z,4.30
2018-09-13T16:30:46.009Z,4.53
2018-09-13T16:33:14.146Z,4.20
2018-09-13T16:35:45.492Z,3.70
2018-09-13T16:38:19.134Z,2.97
2018-09-13T16:40:52.782Z,3.70
2018-09-13T16:43:26.415Z,3.03
2018-09-13T16:45:54.530Z,2.70
2018-09-13T16:48:26.884Z,3.73
2018-09-13T16:50:55.008Z,3.70
2018-09-13T16:53:23.160Z,3.30
2018-09-13T16:55:51.273Z,3.80
2018-09-13T16:58:19.379Z,3.10
2018-09-13T17:00:47.508Z,3.00
2018-09-13T17:03:15.607Z,3.20
2018-09-13T17:05:43.743Z,3.73
2018-09-13T17:08:11.869Z,3.73
2018-09-13T17:10:40.011Z,3.53
2018-09-13T17:13:08.149Z,4.40
2018-09-13T17:15:36.256Z,3.63
2018-09-13T17:18:04.374Z,3.43
2018-09-13T17:20:32.483Z,4.07
2018-09-13T17:23:00.619Z,4.13
2018-09-13T17:25:28.718Z,3.40
2018-09-13T17:27:56.819Z,3.63
2018-09-13T17:30:24.929Z,4.13
2018-09-13T17:32:53.043Z,3.90
2018-09-13T17:35:21.147Z,4.70
2018-09-13T17:37:49.272Z,3.43
2018-09-13T17:40:17.384Z,4.33
2018-09-13T17:42:45.512Z,3.17
2018-09-13T17:45:13.633Z,3.10
2018-09-13T17:47:41.775Z,3.37
2018-09-13T17:50:09.889Z,3.40
2018-09-13T17:52:38.057Z,3.30
2018-09-13T17:55:06.171Z,3.50
2018-09-13T17:57:34.519Z,3.30
2018-09-13T18:00:02.649Z,2.97
2018-09-13T18:02:30.776Z,6.60
2018-09-13T18:04:58.896Z,5.80
2018-09-13T18:07:27.082Z,6.90
2018-09-13T18:09:55.210Z,5.43
2018-09-13T18:12:23.344Z,2.80
2018-09-13T18:14:51.449Z,3.53
2018-09-13T18:17:19.573Z,3.73
2018-09-13T18:19:47.679Z,3.27
2018-09-13T18:22:15.970Z,3.07
2018-09-13T18:24:44.082Z,3.70
2018-09-13T18:27:12.198Z,3.70
2018-09-13T18:29:40.306Z,3.43
2018-09-13T18:32:08.413Z,4.07
2018-09-13T18:34:36.511Z,4.27
2018-09-13T18:37:04.632Z,3.90
2018-09-13T18:39:32.761Z,4.10
2018-09-13T18:42:00.865Z,4.17
2018-09-13T18:44:29.029Z,4.17
2018-09-13T18:46:57.140Z,4.10
2018-09-13T18:49:25.348Z,3.90
2018-09-13T18:51:53.555Z,3.90
2018-09-13T18:54:21.929Z,3.30
2018-09-13T18:56:49.864Z,3.60
2018-09-13T18:59:17.976Z,3.90
2018-09-13T19:01:46.108Z,4.03
2018-09-13T19:04:14.316Z,3.23
2018-09-13T19:06:42.432Z,4.27
2018-09-13T19:09:11.297Z,4.30
2018-09-13T19:11:39.459Z,4.17
2018-09-13T19:14:07.598Z,4.90
2018-09-13T19:16:35.746Z,4.80
2018-09-13T19:19:03.867Z,3.97
2018-09-13T19:21:32.103Z,4.23
2018-09-13T19:24:00.268Z,4.60
2018-09-13T19:26:28.353Z,4.37
2018-09-13T19:28:56.480Z,4.70
2018-09-13T19:31:24.592Z,5.60
2018-09-13T19:33:52.709Z,5.40
2018-09-13T19:36:20.859Z,5.20
2018-09-13T19:38:49.002Z,5.43
2018-09-13T19:41:17.056Z,5.90
2018-09-13T19:43:45.176Z,5.63
2018-09-13T19:46:13.280Z,5.97
2018-09-13T19:48:41.416Z,6.70
2018-09-13T19:51:09.584Z,5.47
2018-09-13T19:53:37.716Z,6.70
2018-09-13T19:56:05.897Z,5.30
2018-09-13T19:58:34.021Z,5.30
2018-09-13T20:01:02.123Z,5.90
2018-09-13T20:03:30.262Z,5.07
2018-09-13T20:05:58.392Z,5.30
2018-09-13T20:08:26.525Z,5.00
2018-09-13T20:10:54.637Z,4.13
2018-09-13T20:13:22.749Z,5.67
2018-09-13T20:15:50.867Z,5.07
2018-09-13T20:18:19.099Z,6.40
2018-09-13T20:20:47.132Z,6.63
2018-09-13T20:23:15.278Z,5.97
2018-09-13T20:25:43.350Z,5.90
2018-09-13T20:28:11.440Z,5.13
2018-09-13T20:30:39.549Z,4.90
2018-09-13T20:33:07.710Z,5.80
2018-09-13T20:35:35.777Z,5.50
2018-09-13T20:38:03.869Z,5.57
2018-09-13T20:40:31.998Z,6.20
2018-09-13T20:43:00.091Z,6.90
2018-09-13T20:45:28.311Z,6.63
2018-09-13T20:47:56.387Z,7.70
2018-09-13T20:50:24.493Z,6.67
2018-09-13T20:52:52.588Z,8.67
2018-09-13T20:55:20.696Z,7.00
2018-09-13T20:57:48.801Z,7.60
2018-09-13T21:00:19.787Z,8.00
2018-09-13T21:02:49.089Z,9.20
2018-09-13T21:05:17.694Z,7.90
2018-09-13T21:07:45.791Z,7.73
2018-09-13T21:10:13.942Z,7.97
2018-09-13T21:12:42.078Z,8.17
2018-09-13T21:15:10.232Z,7.47
2018-09-13T21:17:38.335Z,8.90
2018-09-13T21:20:06.484Z,8.90
2018-09-13T21:22:34.599Z,11.93
2018-09-13T21:25:02.732Z,11.43
2018-09-13T21:27:30.828Z,9.43
2018-09-13T21:29:58.952Z,10.07
2018-09-13T21:32:27.393Z,9.60
2018-09-13T21:34:55.516Z,10.00
2018-09-13T21:37:23.631Z,8.80
2018-09-13T21:39:51.745Z,8.20
2018-09-13T21:42:19.847Z,8.60
2018-09-13T21:44:47.955Z,7.50
2018-09-13T21:47:16.089Z,9.90
2018-09-13T21:49:44.199Z,8.30
2018-09-13T21:52:12.365Z,8.57
2018-09-13T21:54:40.481Z,8.80
2018-09-13T21:57:08.628Z,8.67
2018-09-13T21:59:36.916Z,7.50
2018-09-13T22:02:05.052Z,9.13
2018-09-13T22:04:33.163Z,8.27
2018-09-13T22:07:01.336Z,9.30
2018-09-13T22:09:29.549Z,7.93
2018-09-13T22:11:57.663Z,9.47
2018-09-13T22:14:25.756Z,8.63
2018-09-13T22:16:53.862Z,8.67
2018-09-13T22:19:22.016Z,8.70
2018-09-13T22:21:50.145Z,9.17
2018-09-13T22:24:18.228Z,9.30
2018-09-13T22:26:46.576Z,9.53
2018-09-13T22:29:14.715Z,9.27
2018-09-13T22:31:42.804Z,9.70
2018-09-13T22:34:10.913Z,9.60
2018-09-13T22:36:39.019Z,8.77
2018-09-13T22:39:08.739Z,10.00
2018-09-13T22:41:37.540Z,8.60
2018-09-13T22:44:05.650Z,9.57
2018-09-13T22:46:33.887Z,9.40
2018-09-13T22:49:02.013Z,9.63
2018-09-13T22:51:30.120Z,9.70
2018-09-13T22:53:58.215Z,10.20
2018-09-13T22:56:26.328Z,8.97
2018-09-13T22:58:54.404Z,9.97
2018-09-13T23:01:22.540Z,10.50
2018-09-13T23:03:50.653Z,10.03
2018-09-13T23:06:18.742Z,8.83
2018-09-13T23:08:46.845Z,9.70
2018-09-13T23:11:14.977Z,9.53
2018-09-13T23:13:43.081Z,10.47
2018-09-13T23:16:11.274Z,9.87
2018-09-13T23:18:39.321Z,10.73
2018-09-13T23:21:07.456Z,10.37
2018-09-13T23:23:35.565Z,10.20
2018-09-13T23:26:03.675Z,11.00
2018-09-13T23:28:31.811Z,11.10
2018-09-13T23:30:59.971Z,9.50
2018-09-13T23:33:28.160Z,9.97
2018-09-13T23:35:56.264Z,10.90
2018-09-13T23:38:24.384Z,9.40
2018-09-13T23:40:52.550Z,11.73
2018-09-13T23:43:20.655Z,12.30
2018-09-13T23:45:48.805Z,12.53
2018-09-13T23:48:16.918Z,10.90
2018-09-13T23:50:45.049Z,11.97
2018-09-13T23:53:13.166Z,13.07
2018-09-13T23:55:41.472Z,13.33
2018-09-13T23:58:09.604Z,13.53
